sensor_id;sensor_type;location;lat;lon;timestamp;P1;durP1;ratioP1;P2;durP2;ratioP2
47239;SDS011;32978;53.586;10.052;2023-02-17T00:06:15;51.88;;;41.35;;
47239;SDS011;32978;53.586;10.052;2023-02-17T00:11:13;51.88;;;40.50;;
47239;SDS011;32978;53.586;10.052;2023-02-17T00:16:15;57.33;;;44.90;;
47239;SDS011;32978;53.586;10.052;2023-02-17T00:21:15;56.25;;;40.95;;
47239;SDS011;32978;53.586;10.052;2023-02-17T00:26:15;51.78;;;42.58;;
47239;SDS011;32978;53.586;10.052;2023-02-17T00:31:13;63.42;;;44.22;;
47239;SDS011;32978;53.586;10.052;2023-02-17T00:36:16;57.63;;;44.03;;
47239;SDS011;32978;53.586;10.052;2023-02-17T00:41:15;67.03;;;51.75;;
47239;SDS011;32978;53.586;10.052;2023-02-17T00:46:13;56.95;;;44.67;;
47239;SDS011;32978;53.586;10.052;2023-02-17T00:51:10;56.92;;;44.85;;
47239;SDS011;32978;53.586;10.052;2023-02-17T00:56:07;54.10;;;41.97;;
47239;SDS011;32978;53.586;10.052;2023-02-17T01:01:04;61.47;;;47.40;;
47239;SDS011;32978;53.586;10.052;2023-02-17T01:06:04;63.58;;;46.78;;
47239;SDS011;32978;53.586;10.052;2023-02-17T01:11:02;61.60;;;42.15;;
47239;SDS011;32978;53.586;10.052;2023-02-17T01:15:59;66.72;;;48.83;;
47239;SDS011;32978;53.586;10.052;2023-02-17T01:20:55;61.03;;;45.72;;
47239;SDS011;32978;53.586;10.052;2023-02-17T01:25:52;68.38;;;50.90;;
47239;SDS011;32978;53.586;10.052;2023-02-17T01:30:48;72.65;;;50.85;;
47239;SDS011;32978;53.586;10.052;2023-02-17T01:35:45;88.45;;;58.53;;
47239;SDS011;32978;53.586;10.052;2023-02-17T01:40:45;68.07;;;48.88;;
47239;SDS011;32978;53.586;10.052;2023-02-17T01:45:55;65.88;;;47.97;;
47239;SDS011;32978;53.586;10.052;2023-02-17T01:55:58;70.32;;;48.58;;
47239;SDS011;32978;53.586;10.052;2023-02-17T02:00:54;66.70;;;49.28;;
47239;SDS011;32978;53.586;10.052;2023-02-17T02:05:55;64.43;;;49.03;;
47239;SDS011;32978;53.586;10.052;2023-02-17T02:10:52;73.68;;;51.78;;
47239;SDS011;32978;53.586;10.052;2023-02-17T02:15:52;68.55;;;49.35;;
47239;SDS011;32978;53.586;10.052;2023-02-17T02:31:44;65.07;;;47.67;;
47239;SDS011;32978;53.586;10.052;2023-02-17T02:41:59;56.20;;;41.58;;
47239;SDS011;32978;53.586;10.052;2023-02-17T02:47:00;52.70;;;41.30;;
47239;SDS011;32978;53.586;10.052;2023-02-17T02:52:10;56.03;;;40.42;;
47239;SDS011;32978;53.586;10.052;2023-02-17T02:57:19;53.33;;;43.30;;
47239;SDS011;32978;53.586;10.052;2023-02-17T03:07:27;45.65;;;35.92;;
47239;SDS011;32978;53.586;10.052;2023-02-17T03:12:28;42.33;;;35.38;;
47239;SDS011;32978;53.586;10.052;2023-02-17T03:17:25;40.47;;;33.55;;
47239;SDS011;32978;53.586;10.052;2023-02-17T03:22:27;35.33;;;27.60;;
47239;SDS011;32978;53.586;10.052;2023-02-17T03:27:29;33.70;;;27.85;;
47239;SDS011;32978;53.586;10.052;2023-02-17T03:32:25;37.08;;;29.35;;
47239;SDS011;32978;53.586;10.052;2023-02-17T03:37:22;37.42;;;30.27;;
47239;SDS011;32978;53.586;10.052;2023-02-17T03:42:18;41.17;;;31.73;;
47239;SDS011;32978;53.586;10.052;2023-02-17T03:47:15;37.78;;;30.13;;
47239;SDS011;32978;53.586;10.052;2023-02-17T03:52:11;41.17;;;33.38;;
47239;SDS011;32978;53.586;10.052;2023-02-17T03:57:08;33.05;;;29.17;;
47239;SDS011;32978;53.586;10.052;2023-02-17T04:02:05;35.45;;;29.35;;
47239;SDS011;32978;53.586;10.052;2023-02-17T04:07:01;36.22;;;29.20;;
47239;SDS011;32978;53.586;10.052;2023-02-17T04:11:58;34.38;;;29.10;;
47239;SDS011;32978;53.586;10.052;2023-02-17T04:16:54;36.95;;;31.75;;
47239;SDS011;32978;53.586;10.052;2023-02-17T04:21:51;35.70;;;31.80;;
47239;SDS011;32978;53.586;10.052;2023-02-17T04:26:47;37.45;;;32.72;;
47239;SDS011;32978;53.586;10.052;2023-02-17T04:31:43;37.83;;;30.50;;
47239;SDS011;32978;53.586;10.052;2023-02-17T04:36:40;37.65;;;30.70;;
47239;SDS011;32978;53.586;10.052;2023-02-17T04:41:39;36.17;;;30.88;;
47239;SDS011;32978;53.586;10.052;2023-02-17T04:46:35;39.55;;;32.38;;
47239;SDS011;32978;53.586;10.052;2023-02-17T04:51:32;43.92;;;35.03;;
47239;SDS011;32978;53.586;10.052;2023-02-17T04:56:28;41.92;;;33.50;;
47239;SDS011;32978;53.586;10.052;2023-02-17T05:01:25;38.22;;;31.48;;
47239;SDS011;32978;53.586;10.052;2023-02-17T05:06:21;37.60;;;31.88;;
47239;SDS011;32978;53.586;10.052;2023-02-17T05:11:18;37.78;;;32.60;;
47239;SDS011;32978;53.586;10.052;2023-02-17T05:16:14;37.22;;;30.85;;
47239;SDS011;32978;53.586;10.052;2023-02-17T05:21:11;36.03;;;30.13;;
47239;SDS011;32978;53.586;10.052;2023-02-17T05:26:07;40.85;;;35.10;;
47239;SDS011;32978;53.586;10.052;2023-02-17T05:31:04;41.47;;;31.90;;
47239;SDS011;32978;53.586;10.052;2023-02-17T05:36:02;37.53;;;30.83;;
47239;SDS011;32978;53.586;10.052;2023-02-17T05:41:01;46.28;;;32.60;;
47239;SDS011;32978;53.586;10.052;2023-02-17T05:46:01;49.58;;;36.13;;
47239;SDS011;32978;53.586;10.052;2023-02-17T05:50:58;52.13;;;33.97;;
47239;SDS011;32978;53.586;10.052;2023-02-17T05:55:55;49.47;;;34.42;;
47239;SDS011;32978;53.586;10.052;2023-02-17T06:00:51;47.40;;;34.10;;
47239;SDS011;32978;53.586;10.052;2023-02-17T06:05:48;47.65;;;34.83;;
47239;SDS011;32978;53.586;10.052;2023-02-17T06:10:44;50.70;;;34.30;;
47239;SDS011;32978;53.586;10.052;2023-02-17T06:15:41;47.88;;;32.65;;
47239;SDS011;32978;53.586;10.052;2023-02-17T06:20:37;47.10;;;33.53;;
47239;SDS011;32978;53.586;10.052;2023-02-17T06:25:34;44.67;;;32.70;;
47239;SDS011;32978;53.586;10.052;2023-02-17T06:30:30;53.85;;;33.42;;
47239;SDS011;32978;53.586;10.052;2023-02-17T06:35:27;45.78;;;32.33;;
47239;SDS011;32978;53.586;10.052;2023-02-17T06:40:23;47.78;;;31.30;;
47239;SDS011;32978;53.586;10.052;2023-02-17T06:45:23;47.75;;;32.08;;
47239;SDS011;32978;53.586;10.052;2023-02-17T06:50:19;45.05;;;30.20;;
47239;SDS011;32978;53.586;10.052;2023-02-17T06:55:17;46.40;;;30.98;;
47239;SDS011;32978;53.586;10.052;2023-02-17T07:00:13;47.00;;;32.42;;
47239;SDS011;32978;53.586;10.052;2023-02-17T07:05:10;47.35;;;34.80;;
47239;SDS011;32978;53.586;10.052;2023-02-17T07:10:06;50.97;;;35.33;;
47239;SDS011;32978;53.586;10.052;2023-02-17T07:15:03;48.88;;;34.38;;
47239;SDS011;32978;53.586;10.052;2023-02-17T07:20:00;52.08;;;33.20;;
47239;SDS011;32978;53.586;10.052;2023-02-17T07:24:57;48.00;;;34.03;;
47239;SDS011;32978;53.586;10.052;2023-02-17T07:29:53;53.05;;;34.95;;
47239;SDS011;32978;53.586;10.052;2023-02-17T07:34:50;48.78;;;33.85;;
47239;SDS011;32978;53.586;10.052;2023-02-17T07:39:47;54.15;;;36.75;;
47239;SDS011;32978;53.586;10.052;2023-02-17T07:44:43;64.25;;;37.85;;
47239;SDS011;32978;53.586;10.052;2023-02-17T07:49:40;52.58;;;35.47;;
47239;SDS011;32978;53.586;10.052;2023-02-17T07:54:36;45.60;;;31.63;;
47239;SDS011;32978;53.586;10.052;2023-02-17T07:59:33;49.53;;;34.67;;
47239;SDS011;32978;53.586;10.052;2023-02-17T08:04:29;50.40;;;33.80;;
47239;SDS011;32978;53.586;10.052;2023-02-17T08:09:27;44.28;;;30.85;;
47239;SDS011;32978;53.586;10.052;2023-02-17T08:14:43;45.33;;;32.95;;
47239;SDS011;32978;53.586;10.052;2023-02-17T08:19:39;44.05;;;30.85;;
47239;SDS011;32978;53.586;10.052;2023-02-17T08:24:44;44.40;;;31.48;;
47239;SDS011;32978;53.586;10.052;2023-02-17T08:29:41;36.55;;;27.15;;
47239;SDS011;32978;53.586;10.052;2023-02-17T08:34:38;40.33;;;28.30;;
47239;SDS011;32978;53.586;10.052;2023-02-17T08:39:34;41.85;;;30.27;;
47239;SDS011;32978;53.586;10.052;2023-02-17T08:44:32;39.13;;;30.95;;
47239;SDS011;32978;53.586;10.052;2023-02-17T08:49:31;40.90;;;31.08;;
47239;SDS011;32978;53.586;10.052;2023-02-17T08:54:28;38.00;;;28.63;;
47239;SDS011;32978;53.586;10.052;2023-02-17T08:59:24;39.55;;;27.15;;
47239;SDS011;32978;53.586;10.052;2023-02-17T09:04:21;35.55;;;25.38;;
47239;SDS011;32978;53.586;10.052;2023-02-17T09:09:19;37.33;;;25.65;;
47239;SDS011;32978;53.586;10.052;2023-02-17T09:14:17;36.42;;;23.60;;
47239;SDS011;32978;53.586;10.052;2023-02-17T09:19:14;37.58;;;25.77;;
47239;SDS011;32978;53.586;10.052;2023-02-17T09:24:10;34.75;;;21.98;;
47239;SDS011;32978;53.586;10.052;2023-02-17T09:29:07;35.55;;;23.38;;
47239;SDS011;32978;53.586;10.052;2023-02-17T09:34:04;32.42;;;20.08;;
47239;SDS011;32978;53.586;10.052;2023-02-17T09:39:00;33.67;;;23.02;;
47239;SDS011;32978;53.586;10.052;2023-02-17T09:43:57;34.38;;;21.20;;
47239;SDS011;32978;53.586;10.052;2023-02-17T09:48:55;30.85;;;20.55;;
47239;SDS011;32978;53.586;10.052;2023-02-17T09:54:13;34.25;;;23.23;;
47239;SDS011;32978;53.586;10.052;2023-02-17T09:59:26;32.33;;;22.25;;
47239;SDS011;32978;53.586;10.052;2023-02-17T10:04:31;27.05;;;19.52;;
47239;SDS011;32978;53.586;10.052;2023-02-17T10:09:46;29.17;;;20.40;;
47239;SDS011;32978;53.586;10.052;2023-02-17T10:19:55;29.75;;;18.50;;
47239;SDS011;32978;53.586;10.052;2023-02-17T10:24:55;27.25;;;17.60;;
47239;SDS011;32978;53.586;10.052;2023-02-17T10:35:15;34.85;;;20.83;;
47239;SDS011;32978;53.586;10.052;2023-02-17T10:45:24;36.42;;;20.83;;
47239;SDS011;32978;53.586;10.052;2023-02-17T10:50:25;39.97;;;20.90;;
47239;SDS011;32978;53.586;10.052;2023-02-17T10:55:30;41.08;;;22.90;;
47239;SDS011;32978;53.586;10.052;2023-02-17T11:00:32;32.88;;;19.52;;
47239;SDS011;32978;53.586;10.052;2023-02-17T11:05:30;33.90;;;19.77;;
47239;SDS011;32978;53.586;10.052;2023-02-17T11:10:30;35.63;;;21.50;;
47239;SDS011;32978;53.586;10.052;2023-02-17T11:15:43;31.77;;;18.90;;
47239;SDS011;32978;53.586;10.052;2023-02-17T11:20:41;37.72;;;19.70;;
47239;SDS011;32978;53.586;10.052;2023-02-17T11:25:38;31.73;;;19.90;;
47239;SDS011;32978;53.586;10.052;2023-02-17T11:30:34;30.95;;;18.48;;
47239;SDS011;32978;53.586;10.052;2023-02-17T11:40:31;28.10;;;17.15;;
47239;SDS011;32978;53.586;10.052;2023-02-17T11:45:30;35.75;;;21.80;;
47239;SDS011;32978;53.586;10.052;2023-02-17T11:50:31;35.42;;;19.33;;
47239;SDS011;32978;53.586;10.052;2023-02-17T11:55:41;34.13;;;19.10;;
47239;SDS011;32978;53.586;10.052;2023-02-17T12:06:43;28.00;;;17.38;;
47239;SDS011;32978;53.586;10.052;2023-02-17T12:12:06;29.45;;;17.67;;
47239;SDS011;32978;53.586;10.052;2023-02-17T12:22:38;31.20;;;18.73;;
47239;SDS011;32978;53.586;10.052;2023-02-17T12:28:00;39.22;;;18.67;;
47239;SDS011;32978;53.586;10.052;2023-02-17T12:38:32;29.30;;;17.45;;
47239;SDS011;32978;53.586;10.052;2023-02-17T12:53:59;24.23;;;14.68;;
47239;SDS011;32978;53.586;10.052;2023-02-17T12:59:02;25.42;;;15.43;;
47239;SDS011;32978;53.586;10.052;2023-02-17T13:04:06;20.10;;;12.77;;
47239;SDS011;32978;53.586;10.052;2023-02-17T13:09:12;21.05;;;12.10;;
47239;SDS011;32978;53.586;10.052;2023-02-17T13:14:24;18.25;;;11.40;;
47239;SDS011;32978;53.586;10.052;2023-02-17T13:19:33;14.65;;;9.98;;
47239;SDS011;32978;53.586;10.052;2023-02-17T13:29:32;14.43;;;9.75;;
47239;SDS011;32978;53.586;10.052;2023-02-17T13:34:32;17.55;;;9.98;;
47239;SDS011;32978;53.586;10.052;2023-02-17T13:39:30;16.40;;;11.57;;
47239;SDS011;32978;53.586;10.052;2023-02-17T13:49:26;21.58;;;12.90;;
47239;SDS011;32978;53.586;10.052;2023-02-17T13:54:27;18.10;;;12.63;;
47239;SDS011;32978;53.586;10.052;2023-02-17T13:59:24;23.75;;;14.02;;
47239;SDS011;32978;53.586;10.052;2023-02-17T14:04:24;18.50;;;13.73;;
47239;SDS011;32978;53.586;10.052;2023-02-17T14:09:24;19.20;;;13.52;;
47239;SDS011;32978;53.586;10.052;2023-02-17T14:14:23;20.00;;;14.55;;
47239;SDS011;32978;53.586;10.052;2023-02-17T14:19:24;17.85;;;12.77;;
47239;SDS011;32978;53.586;10.052;2023-02-17T14:24:34;12.85;;;11.55;;
47239;SDS011;32978;53.586;10.052;2023-02-17T14:29:45;13.73;;;10.85;;
47239;SDS011;32978;53.586;10.052;2023-02-17T14:34:43;17.95;;;10.35;;
47239;SDS011;32978;53.586;10.052;2023-02-17T14:39:39;9.13;;;7.75;;
47239;SDS011;32978;53.586;10.052;2023-02-17T14:44:36;10.52;;;6.22;;
47239;SDS011;32978;53.586;10.052;2023-02-17T14:49:32;15.07;;;8.20;;
47239;SDS011;32978;53.586;10.052;2023-02-17T14:54:29;17.55;;;7.45;;
47239;SDS011;32978;53.586;10.052;2023-02-17T14:59:25;20.73;;;7.47;;
47239;SDS011;32978;53.586;10.052;2023-02-17T15:04:22;13.18;;;7.90;;
47239;SDS011;32978;53.586;10.052;2023-02-17T15:09:19;19.70;;;7.40;;
47239;SDS011;32978;53.586;10.052;2023-02-17T15:14:23;17.02;;;7.38;;
47239;SDS011;32978;53.586;10.052;2023-02-17T15:19:19;12.18;;;6.60;;
47239;SDS011;32978;53.586;10.052;2023-02-17T15:24:18;15.40;;;8.70;;
47239;SDS011;32978;53.586;10.052;2023-02-17T15:29:22;14.52;;;6.93;;
47239;SDS011;32978;53.586;10.052;2023-02-17T15:34:25;22.87;;;7.07;;
47239;SDS011;32978;53.586;10.052;2023-02-17T15:39:26;17.45;;;6.75;;
47239;SDS011;32978;53.586;10.052;2023-02-17T15:44:23;31.90;;;9.00;;
47239;SDS011;32978;53.586;10.052;2023-02-17T15:49:23;32.25;;;7.90;;
47239;SDS011;32978;53.586;10.052;2023-02-17T15:54:19;23.65;;;8.48;;
47239;SDS011;32978;53.586;10.052;2023-02-17T15:59:23;24.90;;;8.15;;
47239;SDS011;32978;53.586;10.052;2023-02-17T16:04:21;24.75;;;7.50;;
47239;SDS011;32978;53.586;10.052;2023-02-17T16:09:18;26.15;;;8.45;;
47239;SDS011;32978;53.586;10.052;2023-02-17T16:14:23;24.52;;;7.78;;
47239;SDS011;32978;53.586;10.052;2023-02-17T16:19:23;35.47;;;7.95;;
47239;SDS011;32978;53.586;10.052;2023-02-17T16:24:20;21.98;;;7.60;;
47239;SDS011;32978;53.586;10.052;2023-02-17T16:29:17;17.75;;;7.70;;
47239;SDS011;32978;53.586;10.052;2023-02-17T16:34:16;22.23;;;6.97;;
47239;SDS011;32978;53.586;10.052;2023-02-17T16:39:17;24.90;;;8.07;;
47239;SDS011;32978;53.586;10.052;2023-02-17T16:44:19;22.52;;;7.15;;
47239;SDS011;32978;53.586;10.052;2023-02-17T16:49:30;28.88;;;7.85;;
47239;SDS011;32978;53.586;10.052;2023-02-17T16:54:28;19.45;;;8.63;;
47239;SDS011;32978;53.586;10.052;2023-02-17T16:59:25;25.63;;;7.60;;
47239;SDS011;32978;53.586;10.052;2023-02-17T17:04:22;21.63;;;8.20;;
47239;SDS011;32978;53.586;10.052;2023-02-17T17:09:20;24.52;;;8.63;;
47239;SDS011;32978;53.586;10.052;2023-02-17T17:14:19;25.23;;;8.50;;
47239;SDS011;32978;53.586;10.052;2023-02-17T17:19:17;19.60;;;8.60;;
47239;SDS011;32978;53.586;10.052;2023-02-17T17:24:14;30.30;;;8.77;;
47239;SDS011;32978;53.586;10.052;2023-02-17T17:29:11;30.95;;;8.77;;
47239;SDS011;32978;53.586;10.052;2023-02-17T17:34:09;26.98;;;8.45;;
47239;SDS011;32978;53.586;10.052;2023-02-17T17:39:07;21.65;;;7.57;;
47239;SDS011;32978;53.586;10.052;2023-02-17T17:44:08;29.40;;;9.07;;
47239;SDS011;32978;53.586;10.052;2023-02-17T17:49:06;32.25;;;10.13;;
47239;SDS011;32978;53.586;10.052;2023-02-17T17:54:05;33.72;;;8.27;;
47239;SDS011;32978;53.586;10.052;2023-02-17T17:59:02;24.48;;;8.52;;
47239;SDS011;32978;53.586;10.052;2023-02-17T18:04:00;22.83;;;8.30;;
47239;SDS011;32978;53.586;10.052;2023-02-17T18:08:58;17.80;;;7.30;;
47239;SDS011;32978;53.586;10.052;2023-02-17T18:13:59;21.02;;;7.75;;
47239;SDS011;32978;53.586;10.052;2023-02-17T18:18:58;20.67;;;7.93;;
47239;SDS011;32978;53.586;10.052;2023-02-17T18:23:57;20.25;;;8.07;;
47239;SDS011;32978;53.586;10.052;2023-02-17T18:28:54;31.77;;;8.60;;
47239;SDS011;32978;53.586;10.052;2023-02-17T18:33:52;24.17;;;7.53;;
47239;SDS011;32978;53.586;10.052;2023-02-17T18:38:49;24.98;;;7.63;;
47239;SDS011;32978;53.586;10.052;2023-02-17T18:43:46;22.27;;;7.70;;
47239;SDS011;32978;53.586;10.052;2023-02-17T18:48:43;20.48;;;8.13;;
47239;SDS011;32978;53.586;10.052;2023-02-17T18:53:40;17.05;;;6.53;;
47239;SDS011;32978;53.586;10.052;2023-02-17T18:58:37;45.55;;;8.30;;
47239;SDS011;32978;53.586;10.052;2023-02-17T19:03:33;22.00;;;6.75;;
47239;SDS011;32978;53.586;10.052;2023-02-17T19:08:30;30.70;;;9.55;;
47239;SDS011;32978;53.586;10.052;2023-02-17T19:13:26;30.23;;;9.20;;
47239;SDS011;32978;53.586;10.052;2023-02-17T19:18:23;29.58;;;9.27;;
47239;SDS011;32978;53.586;10.052;2023-02-17T19:23:20;33.85;;;8.43;;
47239;SDS011;32978;53.586;10.052;2023-02-17T19:28:17;24.50;;;7.88;;
47239;SDS011;32978;53.586;10.052;2023-02-17T19:33:13;25.23;;;8.30;;
47239;SDS011;32978;53.586;10.052;2023-02-17T19:38:10;29.23;;;8.43;;
47239;SDS011;32978;53.586;10.052;2023-02-17T19:43:06;38.08;;;9.65;;
47239;SDS011;32978;53.586;10.052;2023-02-17T19:48:03;32.50;;;9.85;;
47239;SDS011;32978;53.586;10.052;2023-02-17T19:53:00;24.75;;;7.68;;
47239;SDS011;32978;53.586;10.052;2023-02-17T19:57:57;24.67;;;7.68;;
47239;SDS011;32978;53.586;10.052;2023-02-17T20:02:53;31.20;;;7.22;;
47239;SDS011;32978;53.586;10.052;2023-02-17T20:07:50;31.05;;;7.78;;
47239;SDS011;32978;53.586;10.052;2023-02-17T20:12:46;22.80;;;6.82;;
47239;SDS011;32978;53.586;10.052;2023-02-17T20:17:43;25.67;;;7.10;;
47239;SDS011;32978;53.586;10.052;2023-02-17T20:22:39;24.40;;;7.72;;
47239;SDS011;32978;53.586;10.052;2023-02-17T20:27:36;22.50;;;7.43;;
47239;SDS011;32978;53.586;10.052;2023-02-17T20:32:32;22.85;;;7.10;;
47239;SDS011;32978;53.586;10.052;2023-02-17T20:37:29;25.92;;;6.53;;
47239;SDS011;32978;53.586;10.052;2023-02-17T20:42:25;24.50;;;6.65;;
47239;SDS011;32978;53.586;10.052;2023-02-17T20:47:22;26.80;;;7.10;;
47239;SDS011;32978;53.586;10.052;2023-02-17T20:52:18;14.40;;;5.57;;
47239;SDS011;32978;53.586;10.052;2023-02-17T20:57:15;26.65;;;6.95;;
47239;SDS011;32978;53.586;10.052;2023-02-17T21:02:11;21.58;;;6.95;;
47239;SDS011;32978;53.586;10.052;2023-02-17T21:07:08;22.13;;;6.50;;
47239;SDS011;32978;53.586;10.052;2023-02-17T21:12:05;27.83;;;7.15;;
47239;SDS011;32978;53.586;10.052;2023-02-17T21:17:02;20.23;;;7.72;;
47239;SDS011;32978;53.586;10.052;2023-02-17T21:21:59;29.23;;;7.25;;
47239;SDS011;32978;53.586;10.052;2023-02-17T21:26:56;31.58;;;8.68;;
47239;SDS011;32978;53.586;10.052;2023-02-17T21:31:52;25.13;;;6.32;;
47239;SDS011;32978;53.586;10.052;2023-02-17T21:36:49;23.52;;;6.72;;
47239;SDS011;32978;53.586;10.052;2023-02-17T21:41:46;22.13;;;7.25;;
47239;SDS011;32978;53.586;10.052;2023-02-17T21:46:42;29.15;;;9.02;;
47239;SDS011;32978;53.586;10.052;2023-02-17T21:51:40;28.95;;;7.53;;
47239;SDS011;32978;53.586;10.052;2023-02-17T21:56:37;25.33;;;6.32;;
47239;SDS011;32978;53.586;10.052;2023-02-17T22:01:33;25.27;;;7.82;;
47239;SDS011;32978;53.586;10.052;2023-02-17T22:06:32;26.17;;;6.78;;
47239;SDS011;32978;53.586;10.052;2023-02-17T22:11:31;28.83;;;7.90;;
47239;SDS011;32978;53.586;10.052;2023-02-17T22:16:30;27.20;;;8.50;;
47239;SDS011;32978;53.586;10.052;2023-02-17T22:21:28;34.80;;;7.45;;
47239;SDS011;32978;53.586;10.052;2023-02-17T22:26:25;31.63;;;8.60;;
47239;SDS011;32978;53.586;10.052;2023-02-17T22:31:23;24.95;;;7.45;;
47239;SDS011;32978;53.586;10.052;2023-02-17T22:36:21;24.02;;;7.75;;
47239;SDS011;32978;53.586;10.052;2023-02-17T22:41:20;20.45;;;6.47;;
47239;SDS011;32978;53.586;10.052;2023-02-17T22:46:19;23.25;;;7.35;;
47239;SDS011;32978;53.586;10.052;2023-02-17T22:51:19;28.25;;;7.35;;
47239;SDS011;32978;53.586;10.052;2023-02-17T22:56:17;26.38;;;8.45;;
47239;SDS011;32978;53.586;10.052;2023-02-17T23:01:16;26.20;;;7.97;;
47239;SDS011;32978;53.586;10.052;2023-02-17T23:06:16;17.90;;;7.10;;
47239;SDS011;32978;53.586;10.052;2023-02-17T23:11:16;19.38;;;6.75;;
47239;SDS011;32978;53.586;10.052;2023-02-17T23:16:35;23.50;;;7.05;;
47239;SDS011;32978;53.586;10.052;2023-02-17T23:21:32;21.58;;;7.32;;
47239;SDS011;32978;53.586;10.052;2023-02-17T23:26:29;27.60;;;8.02;;
47239;SDS011;32978;53.586;10.052;2023-02-17T23:31:25;32.05;;;7.95;;
47239;SDS011;32978;53.586;10.052;2023-02-17T23:36:22;28.55;;;7.57;;
47239;SDS011;32978;53.586;10.052;2023-02-17T23:41:19;25.58;;;8.45;;
47239;SDS011;32978;53.586;10.052;2023-02-17T23:46:15;28.13;;;7.05;;
47239;SDS011;32978;53.586;10.052;2023-02-17T23:51:16;27.38;;;7.25;;
47239;SDS011;32978;53.586;10.052;2023-02-17T23:56:15;32.00;;;8.48;;
